Tropical Cyclones
[Index]
Main Index Home Page Stock Weather Photos Extreme Storms Discussion Storm News and Storm Chasing Reports Tropical Cyclones / Hurricanes / Typhoons Weather Data and Links Wild Fires / Bushfires Weather Observation Techniques Weather Picture Catalogue Tornado Pictures and Reports Stock Video Footage and DVDs for sale
Season 1971-1972 Tropical Cyclone GAIL Track Map
Season 1971-1972 Summaries: [BoM-AU] [JTWC-AU] [JTWC-SIO] [JTWC-SPAC] [JTWC-SH]
<<- Previous TC | JTWC 1971-1972 Season | Next TC ->>

click for intensity scale information  Lat/long Grid: Show Hide

 Date Labels: Show Hide

Joint Typhoon Warning Centre Cyclone Data

Name: GAIL
Number: 800 / 7229

11 Apr 1972 00:00 UTC to 17 Apr 1972 18:00 UTC

    date/time    lat    long     hPa   cat  kts
1972-04-11 00   12.8   154.2                  20          
1972-04-11 06   12.9   154.1                  30          
1972-04-11 12   13.1   154.1                  30          
1972-04-11 18   13.3   154.0                  15          
1972-04-12 00   13.5   154.1                  20          
1972-04-12 06   13.7   154.2                  30          
1972-04-12 12   13.9   154.4                  30          
1972-04-12 18   14.0   154.5                  25          
1972-04-13 00   14.1   154.9                  35          
1972-04-13 06   14.4   155.7            2     65          
1972-04-13 12   14.8   156.2            2     55          
1972-04-13 18   15.2   156.7                  25          
1972-04-14 00   15.8   157.3                  20          
1972-04-14 06   16.5   158.1                  20          
1972-04-14 12   16.9   159.0                  25          
1972-04-14 18   17.1   160.0                  30          
1972-04-15 00   17.3   160.9                  30          
1972-04-15 06   17.5   161.9                  30          
1972-04-15 12   17.6   162.9                  35          
1972-04-15 18   17.6   163.9            1     50          
1972-04-16 00   17.6   164.8            1     45          
1972-04-16 06   17.5   165.6                  25          
1972-04-16 12   17.4   166.4                  15          
1972-04-16 18   17.3   167.2                  15          
1972-04-17 00   17.4   168.1                  10          
1972-04-17 06   17.6   169.0                  10          
1972-04-17 12   17.4   169.7                  15          
1972-04-17 18   16.8   170.0                  20          
Winds are 1-min average.

Tropical cyclone tracks developed by Michael Bath using data from the Joint Typhoon Warning Centre Best Tracks and Google Maps.


[Australian Severe Weather index] [Copyright Notice] [Email Contacts] [Search This Site] [Privacy Policy]
Document: tropical_cyclone_gail.htm Updated: 18 September 2016